Glenrock, Nebraska
Current Conditions -  °F | °C
As of 5:35 AM on Thursday 18 Dec 2014 (Local Time) from KAFK Reporting Station
Light Snow Light Snow  
Wind Chill: 27°   Ceiling: 700
Heat Index: 27°   Visibility: 1.7mi
Dew Point: 27°   Wind: 3mph
Humidity: 100%   Direction: 70°ENE
Pressure: 30.21"   Gusts: NA
Location:  40.3314°N, 95.8994°W
Report Text: KAFK 181135Z AUTO 07003KT 1 3/4SM -SN OVC007 M03/M03 A3021 RMK AO2 T10301030
Loading
Personal Weather Stations






























Interactive Weather Map New forecast layout! Learn more

10-Day Weather Forecast

Advertisements
Track Severe Weather on mobile